sensor_id;sensor_type;location;lat;lon;timestamp;temperature;humidity
65074;DHT22;52218;51.224;-2.328;2022-07-04T00:01:54;12.30;99.90
65074;DHT22;52218;51.224;-2.328;2022-07-04T00:05:36;12.20;99.90
65074;DHT22;52218;51.224;-2.328;2022-07-04T00:09:18;12.10;99.90
65074;DHT22;52218;51.224;-2.328;2022-07-04T00:13:00;12.10;99.90
65074;DHT22;52218;51.224;-2.328;2022-07-04T00:16:42;12.00;99.90
65074;DHT22;52218;51.224;-2.328;2022-07-04T00:20:24;11.90;99.90
65074;DHT22;52218;51.224;-2.328;2022-07-04T00:24:06;11.90;99.90
65074;DHT22;52218;51.224;-2.328;2022-07-04T00:27:49;11.80;99.90
65074;DHT22;52218;51.224;-2.328;2022-07-04T00:31:33;11.80;99.90
65074;DHT22;52218;51.224;-2.328;2022-07-04T00:35:15;11.70;99.90
65074;DHT22;52218;51.224;-2.328;2022-07-04T00:38:57;11.60;99.90
65074;DHT22;52218;51.224;-2.328;2022-07-04T00:42:39;11.60;99.90
65074;DHT22;52218;51.224;-2.328;2022-07-04T00:46:21;11.60;99.90
65074;DHT22;52218;51.224;-2.328;2022-07-04T00:50:04;11.50;99.90
65074;DHT22;52218;51.224;-2.328;2022-07-04T00:53:45;11.40;99.90
65074;DHT22;52218;51.224;-2.328;2022-07-04T00:57:28;11.40;99.90
65074;DHT22;52218;51.224;-2.328;2022-07-04T01:01:10;11.40;99.90
65074;DHT22;52218;51.224;-2.328;2022-07-04T01:04:52;11.30;99.90
65074;DHT22;52218;51.224;-2.328;2022-07-04T01:08:41;11.20;99.90
65074;DHT22;52218;51.224;-2.328;2022-07-04T01:12:28;11.20;99.90
65074;DHT22;52218;51.224;-2.328;2022-07-04T01:16:10;11.10;99.90
65074;DHT22;52218;51.224;-2.328;2022-07-04T01:19:53;11.10;99.90
65074;DHT22;52218;51.224;-2.328;2022-07-04T01:23:39;11.00;99.90
65074;DHT22;52218;51.224;-2.328;2022-07-04T01:27:21;11.00;99.90
65074;DHT22;52218;51.224;-2.328;2022-07-04T01:31:03;10.90;99.90
65074;DHT22;52218;51.224;-2.328;2022-07-04T01:34:45;10.90;99.90
65074;DHT22;52218;51.224;-2.328;2022-07-04T01:38:28;10.90;99.90
65074;DHT22;52218;51.224;-2.328;2022-07-04T01:42:10;10.80;99.90
65074;DHT22;52218;51.224;-2.328;2022-07-04T01:45:53;10.80;99.90
65074;DHT22;52218;51.224;-2.328;2022-07-04T01:49:35;10.70;99.90
65074;DHT22;52218;51.224;-2.328;2022-07-04T01:53:16;10.70;99.90
65074;DHT22;52218;51.224;-2.328;2022-07-04T01:56:58;10.70;99.90
65074;DHT22;52218;51.224;-2.328;2022-07-04T02:00:40;10.70;99.90
65074;DHT22;52218;51.224;-2.328;2022-07-04T02:04:40;10.60;99.90
65074;DHT22;52218;51.224;-2.328;2022-07-04T02:08:22;10.60;99.90
65074;DHT22;52218;51.224;-2.328;2022-07-04T02:12:04;10.60;99.90
65074;DHT22;52218;51.224;-2.328;2022-07-04T02:16:05;10.50;99.90
65074;DHT22;52218;51.224;-2.328;2022-07-04T02:19:47;10.50;99.90
65074;DHT22;52218;51.224;-2.328;2022-07-04T02:23:29;10.40;99.90
65074;DHT22;52218;51.224;-2.328;2022-07-04T02:27:11;10.40;99.90
65074;DHT22;52218;51.224;-2.328;2022-07-04T02:30:53;10.40;99.90
65074;DHT22;52218;51.224;-2.328;2022-07-04T02:34:36;10.30;99.90
65074;DHT22;52218;51.224;-2.328;2022-07-04T02:38:17;10.30;99.90
65074;DHT22;52218;51.224;-2.328;2022-07-04T02:41:59;10.30;99.90
65074;DHT22;52218;51.224;-2.328;2022-07-04T02:45:41;10.20;99.90
65074;DHT22;52218;51.224;-2.328;2022-07-04T02:49:23;10.20;99.90
65074;DHT22;52218;51.224;-2.328;2022-07-04T02:53:05;10.20;99.90
65074;DHT22;52218;51.224;-2.328;2022-07-04T02:56:47;10.20;99.90
65074;DHT22;52218;51.224;-2.328;2022-07-04T03:00:29;10.20;99.90
65074;DHT22;52218;51.224;-2.328;2022-07-04T03:04:11;10.20;99.90
65074;DHT22;52218;51.224;-2.328;2022-07-04T03:07:53;10.20;99.90
65074;DHT22;52218;51.224;-2.328;2022-07-04T03:11:36;10.20;99.90
65074;DHT22;52218;51.224;-2.328;2022-07-04T03:15:18;10.20;99.90
65074;DHT22;52218;51.224;-2.328;2022-07-04T03:18:59;10.20;99.90
65074;DHT22;52218;51.224;-2.328;2022-07-04T03:22:41;10.20;99.90
65074;DHT22;52218;51.224;-2.328;2022-07-04T03:26:28;10.20;99.90
65074;DHT22;52218;51.224;-2.328;2022-07-04T03:30:13;10.30;99.90
65074;DHT22;52218;51.224;-2.328;2022-07-04T03:33:55;10.40;99.90
65074;DHT22;52218;51.224;-2.328;2022-07-04T03:37:37;10.40;99.90
65074;DHT22;52218;51.224;-2.328;2022-07-04T03:41:19;10.40;99.90
65074;DHT22;52218;51.224;-2.328;2022-07-04T03:45:01;10.40;99.90
65074;DHT22;52218;51.224;-2.328;2022-07-04T03:48:43;10.40;99.90
65074;DHT22;52218;51.224;-2.328;2022-07-04T03:52:25;10.50;99.90
65074;DHT22;52218;51.224;-2.328;2022-07-04T03:56:07;10.50;99.90
65074;DHT22;52218;51.224;-2.328;2022-07-04T03:59:49;10.50;99.90
65074;DHT22;52218;51.224;-2.328;2022-07-04T04:03:31;10.50;99.90
65074;DHT22;52218;51.224;-2.328;2022-07-04T04:07:32;10.50;99.90
65074;DHT22;52218;51.224;-2.328;2022-07-04T04:11:14;10.50;99.90
65074;DHT22;52218;51.224;-2.328;2022-07-04T04:14:56;10.50;99.90
65074;DHT22;52218;51.224;-2.328;2022-07-04T04:18:37;10.50;99.90
65074;DHT22;52218;51.224;-2.328;2022-07-04T04:22:19;10.60;99.90
65074;DHT22;52218;51.224;-2.328;2022-07-04T04:26:01;10.60;99.90
65074;DHT22;52218;51.224;-2.328;2022-07-04T04:29:43;10.70;99.90
65074;DHT22;52218;51.224;-2.328;2022-07-04T04:33:25;10.70;99.90
65074;DHT22;52218;51.224;-2.328;2022-07-04T04:37:07;10.70;99.90
65074;DHT22;52218;51.224;-2.328;2022-07-04T04:40:49;10.70;99.90
65074;DHT22;52218;51.224;-2.328;2022-07-04T04:44:31;10.70;99.90
65074;DHT22;52218;51.224;-2.328;2022-07-04T04:48:13;10.70;99.90
65074;DHT22;52218;51.224;-2.328;2022-07-04T04:51:56;10.80;99.90
65074;DHT22;52218;51.224;-2.328;2022-07-04T04:55:38;10.80;99.90
65074;DHT22;52218;51.224;-2.328;2022-07-04T04:59:20;10.90;99.90
65074;DHT22;52218;51.224;-2.328;2022-07-04T05:03:02;10.90;99.90
65074;DHT22;52218;51.224;-2.328;2022-07-04T05:06:44;11.00;99.90
65074;DHT22;52218;51.224;-2.328;2022-07-04T05:10:26;11.10;99.90
65074;DHT22;52218;51.224;-2.328;2022-07-04T05:14:08;11.20;99.90
65074;DHT22;52218;51.224;-2.328;2022-07-04T05:17:50;11.30;99.90
65074;DHT22;52218;51.224;-2.328;2022-07-04T05:21:32;11.30;99.90
65074;DHT22;52218;51.224;-2.328;2022-07-04T05:25:14;11.40;99.90
65074;DHT22;52218;51.224;-2.328;2022-07-04T05:28:56;11.50;99.90
65074;DHT22;52218;51.224;-2.328;2022-07-04T05:32:39;11.50;99.90
65074;DHT22;52218;51.224;-2.328;2022-07-04T05:36:22;11.70;99.90
65074;DHT22;52218;51.224;-2.328;2022-07-04T05:40:10;11.80;99.90
65074;DHT22;52218;51.224;-2.328;2022-07-04T05:43:53;12.00;99.90
65074;DHT22;52218;51.224;-2.328;2022-07-04T05:47:39;12.10;99.90
65074;DHT22;52218;51.224;-2.328;2022-07-04T05:51:21;12.20;99.90
65074;DHT22;52218;51.224;-2.328;2022-07-04T05:55:03;12.30;99.90
65074;DHT22;52218;51.224;-2.328;2022-07-04T05:58:45;12.40;99.90
65074;DHT22;52218;51.224;-2.328;2022-07-04T06:02:29;12.50;99.90
65074;DHT22;52218;51.224;-2.328;2022-07-04T06:06:11;12.50;99.90
65074;DHT22;52218;51.224;-2.328;2022-07-04T06:09:53;12.60;99.90
65074;DHT22;52218;51.224;-2.328;2022-07-04T06:13:35;12.70;99.90
65074;DHT22;52218;51.224;-2.328;2022-07-04T06:17:17;12.70;99.90
65074;DHT22;52218;51.224;-2.328;2022-07-04T06:20:58;12.80;99.90
65074;DHT22;52218;51.224;-2.328;2022-07-04T06:24:40;12.90;99.90
65074;DHT22;52218;51.224;-2.328;2022-07-04T06:28:23;13.00;99.90
65074;DHT22;52218;51.224;-2.328;2022-07-04T06:32:25;13.10;99.90
65074;DHT22;52218;51.224;-2.328;2022-07-04T06:36:09;13.20;99.90
65074;DHT22;52218;51.224;-2.328;2022-07-04T06:39:51;13.30;99.90
65074;DHT22;52218;51.224;-2.328;2022-07-04T06:43:33;13.40;99.90
65074;DHT22;52218;51.224;-2.328;2022-07-04T06:47:15;13.50;99.90
65074;DHT22;52218;51.224;-2.328;2022-07-04T06:50:56;13.60;99.90
65074;DHT22;52218;51.224;-2.328;2022-07-04T06:54:38;13.70;99.90
65074;DHT22;52218;51.224;-2.328;2022-07-04T06:58:20;13.80;99.90
65074;DHT22;52218;51.224;-2.328;2022-07-04T07:02:02;13.90;99.90
65074;DHT22;52218;51.224;-2.328;2022-07-04T07:05:45;14.10;99.90
65074;DHT22;52218;51.224;-2.328;2022-07-04T07:09:43;14.20;99.90
65074;DHT22;52218;51.224;-2.328;2022-07-04T07:13:25;14.40;99.90
65074;DHT22;52218;51.224;-2.328;2022-07-04T07:17:07;14.60;99.70
65074;DHT22;52218;51.224;-2.328;2022-07-04T07:20:49;14.70;99.80
65074;DHT22;52218;51.224;-2.328;2022-07-04T07:24:31;14.90;99.60
65074;DHT22;52218;51.224;-2.328;2022-07-04T07:28:13;15.20;99.30
65074;DHT22;52218;51.224;-2.328;2022-07-04T07:31:55;15.50;98.90
65074;DHT22;52218;51.224;-2.328;2022-07-04T07:35:37;15.80;98.20
65074;DHT22;52218;51.224;-2.328;2022-07-04T07:39:22;16.10;97.50
65074;DHT22;52218;51.224;-2.328;2022-07-04T07:43:04;16.30;97.10
65074;DHT22;52218;51.224;-2.328;2022-07-04T07:46:46;16.40;96.90
65074;DHT22;52218;51.224;-2.328;2022-07-04T07:50:28;16.50;96.70
65074;DHT22;52218;51.224;-2.328;2022-07-04T07:54:10;16.60;96.40
65074;DHT22;52218;51.224;-2.328;2022-07-04T07:57:58;16.70;96.20
65074;DHT22;52218;51.224;-2.328;2022-07-04T08:01:40;16.60;96.10
65074;DHT22;52218;51.224;-2.328;2022-07-04T08:05:22;16.60;95.90
65074;DHT22;52218;51.224;-2.328;2022-07-04T08:09:05;16.60;96.10
65074;DHT22;52218;51.224;-2.328;2022-07-04T08:12:47;16.70;95.70
65074;DHT22;52218;51.224;-2.328;2022-07-04T08:16:29;16.70;95.70
65074;DHT22;52218;51.224;-2.328;2022-07-04T08:20:31;16.90;95.60
65074;DHT22;52218;51.224;-2.328;2022-07-04T08:24:33;17.00;95.40
65074;DHT22;52218;51.224;-2.328;2022-07-04T08:28:15;17.10;95.00
65074;DHT22;52218;51.224;-2.328;2022-07-04T08:31:57;17.10;95.10
65074;DHT22;52218;51.224;-2.328;2022-07-04T08:35:39;17.10;95.10
65074;DHT22;52218;51.224;-2.328;2022-07-04T08:39:21;17.20;95.20
65074;DHT22;52218;51.224;-2.328;2022-07-04T08:43:04;17.30;95.10
65074;DHT22;52218;51.224;-2.328;2022-07-04T08:46:47;17.50;94.00
65074;DHT22;52218;51.224;-2.328;2022-07-04T08:50:37;17.50;94.10
65074;DHT22;52218;51.224;-2.328;2022-07-04T08:54:24;17.60;93.60
65074;DHT22;52218;51.224;-2.328;2022-07-04T08:58:25;17.60;93.10
65074;DHT22;52218;51.224;-2.328;2022-07-04T09:02:12;17.60;93.20
65074;DHT22;52218;51.224;-2.328;2022-07-04T09:05:57;17.60;93.50
65074;DHT22;52218;51.224;-2.328;2022-07-04T09:09:40;17.70;93.00
65074;DHT22;52218;51.224;-2.328;2022-07-04T09:13:23;17.80;93.20
65074;DHT22;52218;51.224;-2.328;2022-07-04T09:17:05;17.80;92.90
65074;DHT22;52218;51.224;-2.328;2022-07-04T09:20:47;17.70;93.00
65074;DHT22;52218;51.224;-2.328;2022-07-04T09:24:46;17.60;92.80
65074;DHT22;52218;51.224;-2.328;2022-07-04T09:28:28;17.60;93.10
65074;DHT22;52218;51.224;-2.328;2022-07-04T09:32:10;17.60;92.50
65074;DHT22;52218;51.224;-2.328;2022-07-04T09:35:52;17.70;92.70
65074;DHT22;52218;51.224;-2.328;2022-07-04T09:39:36;17.80;92.80
65074;DHT22;52218;51.224;-2.328;2022-07-04T09:43:19;18.00;92.40
65074;DHT22;52218;51.224;-2.328;2022-07-04T09:47:28;18.20;91.90
65074;DHT22;52218;51.224;-2.328;2022-07-04T09:51:10;18.40;91.70
65074;DHT22;52218;51.224;-2.328;2022-07-04T09:54:52;18.60;91.30
65074;DHT22;52218;51.224;-2.328;2022-07-04T09:58:37;18.80;90.50
65074;DHT22;52218;51.224;-2.328;2022-07-04T10:02:20;19.00;90.10
65074;DHT22;52218;51.224;-2.328;2022-07-04T10:06:08;19.30;89.30
65074;DHT22;52218;51.224;-2.328;2022-07-04T10:09:52;19.50;89.20
65074;DHT22;52218;51.224;-2.328;2022-07-04T10:13:42;19.50;89.60
65074;DHT22;52218;51.224;-2.328;2022-07-04T10:17:24;19.60;88.20
65074;DHT22;52218;51.224;-2.328;2022-07-04T10:21:06;19.70;88.10
65074;DHT22;52218;51.224;-2.328;2022-07-04T10:24:48;19.80;89.20
65074;DHT22;52218;51.224;-2.328;2022-07-04T10:28:31;20.10;88.40
65074;DHT22;52218;51.224;-2.328;2022-07-04T10:32:15;20.10;86.30
65074;DHT22;52218;51.224;-2.328;2022-07-04T10:35:59;20.00;87.00
65074;DHT22;52218;51.224;-2.328;2022-07-04T10:39:44;19.90;87.20
65074;DHT22;52218;51.224;-2.328;2022-07-04T10:47:25;20.00;87.70
65074;DHT22;52218;51.224;-2.328;2022-07-04T10:51:09;20.30;87.40
65074;DHT22;52218;51.224;-2.328;2022-07-04T10:54:52;20.50;84.20
65074;DHT22;52218;51.224;-2.328;2022-07-04T10:58:41;20.80;83.40
65074;DHT22;52218;51.224;-2.328;2022-07-04T11:10:21;21.10;83.80
65074;DHT22;52218;51.224;-2.328;2022-07-04T11:18:14;20.50;84.80
65074;DHT22;52218;51.224;-2.328;2022-07-04T11:21:57;20.30;83.70
65074;DHT22;52218;51.224;-2.328;2022-07-04T11:25:41;20.20;83.90
65074;DHT22;52218;51.224;-2.328;2022-07-04T11:29:24;20.30;83.80
65074;DHT22;52218;51.224;-2.328;2022-07-04T11:33:18;20.30;82.90
65074;DHT22;52218;51.224;-2.328;2022-07-04T11:37:02;20.50;82.90
65074;DHT22;52218;51.224;-2.328;2022-07-04T11:40:45;20.60;81.40
65074;DHT22;52218;51.224;-2.328;2022-07-04T11:44:45;20.80;81.30
65074;DHT22;52218;51.224;-2.328;2022-07-04T11:48:47;21.00;79.20
65074;DHT22;52218;51.224;-2.328;2022-07-04T11:52:41;21.00;79.80
65074;DHT22;52218;51.224;-2.328;2022-07-04T11:56:44;21.40;78.50
65074;DHT22;52218;51.224;-2.328;2022-07-04T12:00:28;21.60;77.00
65074;DHT22;52218;51.224;-2.328;2022-07-04T12:04:18;21.70;77.50
65074;DHT22;52218;51.224;-2.328;2022-07-04T12:08:01;21.80;74.90
65074;DHT22;52218;51.224;-2.328;2022-07-04T12:12:05;21.90;74.10
65074;DHT22;52218;51.224;-2.328;2022-07-04T12:15:51;22.20;73.80
65074;DHT22;52218;51.224;-2.328;2022-07-04T12:19:34;23.00;73.20
65074;DHT22;52218;51.224;-2.328;2022-07-04T12:23:18;23.50;69.90
65074;DHT22;52218;51.224;-2.328;2022-07-04T12:27:00;23.30;69.90
65074;DHT22;52218;51.224;-2.328;2022-07-04T12:34:30;23.20;70.90
65074;DHT22;52218;51.224;-2.328;2022-07-04T12:42:12;23.90;67.40
65074;DHT22;52218;51.224;-2.328;2022-07-04T12:45:55;24.00;68.70
65074;DHT22;52218;51.224;-2.328;2022-07-04T12:49:43;24.30;65.00
65074;DHT22;52218;51.224;-2.328;2022-07-04T12:53:38;24.30;66.50
65074;DHT22;52218;51.224;-2.328;2022-07-04T12:57:21;24.00;66.30
65074;DHT22;52218;51.224;-2.328;2022-07-04T13:01:03;23.70;66.70
65074;DHT22;52218;51.224;-2.328;2022-07-04T13:04:45;23.40;66.00
65074;DHT22;52218;51.224;-2.328;2022-07-04T13:08:27;23.10;67.40
65074;DHT22;52218;51.224;-2.328;2022-07-04T13:12:10;23.00;69.10
65074;DHT22;52218;51.224;-2.328;2022-07-04T13:16:10;22.70;70.00
65074;DHT22;52218;51.224;-2.328;2022-07-04T13:19:52;22.20;70.40
65074;DHT22;52218;51.224;-2.328;2022-07-04T13:23:34;21.80;72.70
65074;DHT22;52218;51.224;-2.328;2022-07-04T13:27:18;21.50;74.00
65074;DHT22;52218;51.224;-2.328;2022-07-04T13:31:00;21.30;75.00
65074;DHT22;52218;51.224;-2.328;2022-07-04T13:34:42;21.30;75.20
65074;DHT22;52218;51.224;-2.328;2022-07-04T13:38:24;21.30;74.70
65074;DHT22;52218;51.224;-2.328;2022-07-04T13:42:07;21.30;75.20
65074;DHT22;52218;51.224;-2.328;2022-07-04T13:45:49;21.00;75.60
65074;DHT22;52218;51.224;-2.328;2022-07-04T13:49:31;20.90;74.80
65074;DHT22;52218;51.224;-2.328;2022-07-04T13:53:13;20.70;75.70
65074;DHT22;52218;51.224;-2.328;2022-07-04T13:56:55;20.50;77.20
65074;DHT22;52218;51.224;-2.328;2022-07-04T14:00:38;20.30;78.00
65074;DHT22;52218;51.224;-2.328;2022-07-04T14:04:22;20.30;80.20
65074;DHT22;52218;51.224;-2.328;2022-07-04T14:08:05;20.20;80.50
65074;DHT22;52218;51.224;-2.328;2022-07-04T14:11:47;20.10;80.70
65074;DHT22;52218;51.224;-2.328;2022-07-04T14:15:31;20.00;80.10
65074;DHT22;52218;51.224;-2.328;2022-07-04T14:19:13;19.90;80.60
65074;DHT22;52218;51.224;-2.328;2022-07-04T14:23:01;19.90;80.80
65074;DHT22;52218;51.224;-2.328;2022-07-04T14:26:43;20.10;80.80
65074;DHT22;52218;51.224;-2.328;2022-07-04T14:30:25;20.20;79.70
65074;DHT22;52218;51.224;-2.328;2022-07-04T14:34:07;20.20;79.80
65074;DHT22;52218;51.224;-2.328;2022-07-04T14:37:51;20.20;80.80
65074;DHT22;52218;51.224;-2.328;2022-07-04T14:41:37;20.20;79.70
65074;DHT22;52218;51.224;-2.328;2022-07-04T14:45:19;20.30;79.70
65074;DHT22;52218;51.224;-2.328;2022-07-04T14:49:01;20.40;79.10
65074;DHT22;52218;51.224;-2.328;2022-07-04T14:52:43;20.30;78.80
65074;DHT22;52218;51.224;-2.328;2022-07-04T14:56:25;20.20;79.40
65074;DHT22;52218;51.224;-2.328;2022-07-04T15:00:07;20.20;79.60
65074;DHT22;52218;51.224;-2.328;2022-07-04T15:03:49;20.20;80.80
65074;DHT22;52218;51.224;-2.328;2022-07-04T15:07:31;20.60;79.20
65074;DHT22;52218;51.224;-2.328;2022-07-04T15:11:13;20.80;77.70
65074;DHT22;52218;51.224;-2.328;2022-07-04T15:15:01;20.60;78.40
65074;DHT22;52218;51.224;-2.328;2022-07-04T15:18:44;20.60;79.60
65074;DHT22;52218;51.224;-2.328;2022-07-04T15:22:28;20.40;79.90
65074;DHT22;52218;51.224;-2.328;2022-07-04T15:26:29;20.30;80.80
65074;DHT22;52218;51.224;-2.328;2022-07-04T15:30:11;20.10;82.00
65074;DHT22;52218;51.224;-2.328;2022-07-04T15:33:53;19.90;82.40
65074;DHT22;52218;51.224;-2.328;2022-07-04T15:37:36;19.80;81.80
65074;DHT22;52218;51.224;-2.328;2022-07-04T15:41:18;19.80;82.60
65074;DHT22;52218;51.224;-2.328;2022-07-04T15:45:00;19.60;82.40
65074;DHT22;52218;51.224;-2.328;2022-07-04T15:48:42;19.50;82.70
65074;DHT22;52218;51.224;-2.328;2022-07-04T15:52:24;19.50;83.90
65074;DHT22;52218;51.224;-2.328;2022-07-04T15:56:07;19.60;84.10
65074;DHT22;52218;51.224;-2.328;2022-07-04T15:59:49;20.00;82.30
65074;DHT22;52218;51.224;-2.328;2022-07-04T16:03:31;20.60;80.90
65074;DHT22;52218;51.224;-2.328;2022-07-04T16:07:13;21.20;80.80
65074;DHT22;52218;51.224;-2.328;2022-07-04T16:10:55;21.60;77.50
65074;DHT22;52218;51.224;-2.328;2022-07-04T16:14:37;21.90;78.20
65074;DHT22;52218;51.224;-2.328;2022-07-04T16:18:19;22.20;76.80
65074;DHT22;52218;51.224;-2.328;2022-07-04T16:22:01;22.50;75.50
65074;DHT22;52218;51.224;-2.328;2022-07-04T16:25:43;22.60;74.90
65074;DHT22;52218;51.224;-2.328;2022-07-04T16:29:25;22.50;76.00
65074;DHT22;52218;51.224;-2.328;2022-07-04T16:33:07;22.40;76.20
65074;DHT22;52218;51.224;-2.328;2022-07-04T16:36:49;22.10;76.20
65074;DHT22;52218;51.224;-2.328;2022-07-04T16:40:31;21.90;77.00
65074;DHT22;52218;51.224;-2.328;2022-07-04T16:44:13;21.60;77.00
65074;DHT22;52218;51.224;-2.328;2022-07-04T16:47:55;21.30;78.00
65074;DHT22;52218;51.224;-2.328;2022-07-04T16:51:37;21.00;78.60
65074;DHT22;52218;51.224;-2.328;2022-07-04T16:55:19;20.70;78.50
65074;DHT22;52218;51.224;-2.328;2022-07-04T16:59:02;20.40;79.50
65074;DHT22;52218;51.224;-2.328;2022-07-04T17:02:44;20.30;80.80
65074;DHT22;52218;51.224;-2.328;2022-07-04T17:06:26;20.30;81.70
65074;DHT22;52218;51.224;-2.328;2022-07-04T17:10:08;20.20;81.20
65074;DHT22;52218;51.224;-2.328;2022-07-04T17:13:50;20.30;81.30
65074;DHT22;52218;51.224;-2.328;2022-07-04T17:17:34;20.30;81.60
65074;DHT22;52218;51.224;-2.328;2022-07-04T17:21:16;20.30;80.40
65074;DHT22;52218;51.224;-2.328;2022-07-04T17:24:58;20.30;81.40
65074;DHT22;52218;51.224;-2.328;2022-07-04T17:28:41;20.00;81.80
65074;DHT22;52218;51.224;-2.328;2022-07-04T17:32:24;20.00;82.80
65074;DHT22;52218;51.224;-2.328;2022-07-04T17:36:07;20.00;83.40
65074;DHT22;52218;51.224;-2.328;2022-07-04T17:39:49;19.90;83.20
65074;DHT22;52218;51.224;-2.328;2022-07-04T17:43:31;19.70;83.70
65074;DHT22;52218;51.224;-2.328;2022-07-04T17:47:13;19.70;84.40
65074;DHT22;52218;51.224;-2.328;2022-07-04T17:50:55;19.70;84.30
65074;DHT22;52218;51.224;-2.328;2022-07-04T17:54:37;19.70;84.40
65074;DHT22;52218;51.224;-2.328;2022-07-04T17:58:34;19.70;84.70
65074;DHT22;52218;51.224;-2.328;2022-07-04T18:02:17;19.70;84.80
65074;DHT22;52218;51.224;-2.328;2022-07-04T18:05:59;19.60;84.30
65074;DHT22;52218;51.224;-2.328;2022-07-04T18:09:41;19.60;84.90
65074;DHT22;52218;51.224;-2.328;2022-07-04T18:13:24;19.50;85.10
65074;DHT22;52218;51.224;-2.328;2022-07-04T18:17:06;19.40;85.30
65074;DHT22;52218;51.224;-2.328;2022-07-04T18:20:48;19.30;86.30
65074;DHT22;52218;51.224;-2.328;2022-07-04T18:24:30;19.20;86.80
65074;DHT22;52218;51.224;-2.328;2022-07-04T18:28:12;19.10;86.10
65074;DHT22;52218;51.224;-2.328;2022-07-04T18:31:55;19.10;86.90
65074;DHT22;52218;51.224;-2.328;2022-07-04T18:35:38;19.00;86.70
65074;DHT22;52218;51.224;-2.328;2022-07-04T18:39:25;18.90;87.60
65074;DHT22;52218;51.224;-2.328;2022-07-04T18:43:07;18.80;87.60
65074;DHT22;52218;51.224;-2.328;2022-07-04T18:47:07;18.70;88.10
65074;DHT22;52218;51.224;-2.328;2022-07-04T18:50:54;18.60;88.40
65074;DHT22;52218;51.224;-2.328;2022-07-04T18:54:36;18.50;89.20
65074;DHT22;52218;51.224;-2.328;2022-07-04T18:58:19;18.40;89.50
65074;DHT22;52218;51.224;-2.328;2022-07-04T19:02:03;18.40;90.10
65074;DHT22;52218;51.224;-2.328;2022-07-04T19:05:46;18.30;89.90
65074;DHT22;52218;51.224;-2.328;2022-07-04T19:09:28;18.20;90.10
65074;DHT22;52218;51.224;-2.328;2022-07-04T19:13:11;18.10;90.30
65074;DHT22;52218;51.224;-2.328;2022-07-04T19:16:53;18.00;90.40
65074;DHT22;52218;51.224;-2.328;2022-07-04T19:20:35;18.00;90.40
65074;DHT22;52218;51.224;-2.328;2022-07-04T19:24:17;18.00;90.50
65074;DHT22;52218;51.224;-2.328;2022-07-04T19:27:59;17.90;90.60
65074;DHT22;52218;51.224;-2.328;2022-07-04T19:31:41;17.80;90.60
65074;DHT22;52218;51.224;-2.328;2022-07-04T19:35:23;17.80;90.60
65074;DHT22;52218;51.224;-2.328;2022-07-04T19:39:05;17.70;90.80
65074;DHT22;52218;51.224;-2.328;2022-07-04T19:42:47;17.60;91.20
65074;DHT22;52218;51.224;-2.328;2022-07-04T19:46:30;17.40;91.50
65074;DHT22;52218;51.224;-2.328;2022-07-04T19:50:12;17.30;91.60
65074;DHT22;52218;51.224;-2.328;2022-07-04T19:53:54;17.30;91.90
65074;DHT22;52218;51.224;-2.328;2022-07-04T19:57:37;17.20;92.00
65074;DHT22;52218;51.224;-2.328;2022-07-04T20:01:21;17.10;92.20
65074;DHT22;52218;51.224;-2.328;2022-07-04T20:05:04;17.00;92.50
65074;DHT22;52218;51.224;-2.328;2022-07-04T20:08:51;16.90;92.70
65074;DHT22;52218;51.224;-2.328;2022-07-04T20:12:33;16.70;93.00
65074;DHT22;52218;51.224;-2.328;2022-07-04T20:16:15;16.60;93.10
65074;DHT22;52218;51.224;-2.328;2022-07-04T20:19:59;16.50;93.30
65074;DHT22;52218;51.224;-2.328;2022-07-04T20:23:42;16.40;93.40
65074;DHT22;52218;51.224;-2.328;2022-07-04T20:27:24;16.20;93.60
65074;DHT22;52218;51.224;-2.328;2022-07-04T20:31:06;16.10;93.80
65074;DHT22;52218;51.224;-2.328;2022-07-04T20:34:58;15.90;94.00
65074;DHT22;52218;51.224;-2.328;2022-07-04T20:38:41;15.80;94.40
65074;DHT22;52218;51.224;-2.328;2022-07-04T20:42:24;15.70;94.50
65074;DHT22;52218;51.224;-2.328;2022-07-04T20:46:06;15.60;94.70
65074;DHT22;52218;51.224;-2.328;2022-07-04T20:49:49;15.50;94.90
65074;DHT22;52218;51.224;-2.328;2022-07-04T20:53:31;15.40;95.10
65074;DHT22;52218;51.224;-2.328;2022-07-04T20:57:13;15.20;95.30
65074;DHT22;52218;51.224;-2.328;2022-07-04T21:00:55;15.10;95.60
65074;DHT22;52218;51.224;-2.328;2022-07-04T21:04:38;15.00;95.80
65074;DHT22;52218;51.224;-2.328;2022-07-04T21:08:36;14.90;96.10
65074;DHT22;52218;51.224;-2.328;2022-07-04T21:12:18;14.90;96.20
65074;DHT22;52218;51.224;-2.328;2022-07-04T21:16:00;14.80;96.50
65074;DHT22;52218;51.224;-2.328;2022-07-04T21:19:42;14.70;96.70
65074;DHT22;52218;51.224;-2.328;2022-07-04T21:23:24;14.60;96.80
65074;DHT22;52218;51.224;-2.328;2022-07-04T21:27:06;14.50;97.00
65074;DHT22;52218;51.224;-2.328;2022-07-04T21:30:48;14.40;97.10
65074;DHT22;52218;51.224;-2.328;2022-07-04T21:34:30;14.40;97.20
65074;DHT22;52218;51.224;-2.328;2022-07-04T21:38:12;14.30;97.40
65074;DHT22;52218;51.224;-2.328;2022-07-04T21:41:54;14.20;97.50
65074;DHT22;52218;51.224;-2.328;2022-07-04T21:45:36;14.20;97.60
65074;DHT22;52218;51.224;-2.328;2022-07-04T21:49:18;14.10;97.80
65074;DHT22;52218;51.224;-2.328;2022-07-04T21:53:04;14.10;98.00
65074;DHT22;52218;51.224;-2.328;2022-07-04T21:56:46;14.00;98.10
65074;DHT22;52218;51.224;-2.328;2022-07-04T22:00:28;13.90;98.20
65074;DHT22;52218;51.224;-2.328;2022-07-04T22:04:10;13.90;98.30
65074;DHT22;52218;51.224;-2.328;2022-07-04T22:07:52;13.90;98.40
65074;DHT22;52218;51.224;-2.328;2022-07-04T22:11:36;13.80;98.60
65074;DHT22;52218;51.224;-2.328;2022-07-04T22:15:18;13.80;98.70
65074;DHT22;52218;51.224;-2.328;2022-07-04T22:19:00;13.80;99.00
65074;DHT22;52218;51.224;-2.328;2022-07-04T22:22:42;13.70;99.00
65074;DHT22;52218;51.224;-2.328;2022-07-04T22:26:24;13.70;99.00
65074;DHT22;52218;51.224;-2.328;2022-07-04T22:30:07;13.60;99.20
65074;DHT22;52218;51.224;-2.328;2022-07-04T22:33:49;13.60;99.30
65074;DHT22;52218;51.224;-2.328;2022-07-04T22:37:31;13.60;99.40
65074;DHT22;52218;51.224;-2.328;2022-07-04T22:41:13;13.60;99.50
65074;DHT22;52218;51.224;-2.328;2022-07-04T22:44:55;13.60;99.50
65074;DHT22;52218;51.224;-2.328;2022-07-04T22:48:37;13.60;99.50
65074;DHT22;52218;51.224;-2.328;2022-07-04T22:52:19;13.50;99.40
65074;DHT22;52218;51.224;-2.328;2022-07-04T22:56:01;13.50;99.70
65074;DHT22;52218;51.224;-2.328;2022-07-04T22:59:43;13.40;99.70
65074;DHT22;52218;51.224;-2.328;2022-07-04T23:03:25;13.40;99.80
65074;DHT22;52218;51.224;-2.328;2022-07-04T23:07:07;13.30;99.90
65074;DHT22;52218;51.224;-2.328;2022-07-04T23:10:48;13.30;99.80
65074;DHT22;52218;51.224;-2.328;2022-07-04T23:14:30;13.20;99.90
65074;DHT22;52218;51.224;-2.328;2022-07-04T23:18:12;13.20;99.90
65074;DHT22;52218;51.224;-2.328;2022-07-04T23:21:54;13.10;99.90
65074;DHT22;52218;51.224;-2.328;2022-07-04T23:25:36;13.00;99.90
65074;DHT22;52218;51.224;-2.328;2022-07-04T23:29:18;13.00;99.90
65074;DHT22;52218;51.224;-2.328;2022-07-04T23:33:00;12.90;99.90